createdAt,value
2019-04-23T00:02:18.598Z,9.33
2019-04-23T00:04:47.939Z,9.31
2019-04-23T00:10:01.241Z,9.18
2019-04-23T00:12:30.329Z,9.14
2019-04-23T00:17:32.967Z,9.13
2019-04-23T00:20:00.746Z,9.13
2019-04-23T00:22:30.021Z,9.04
2019-04-23T00:25:41.608Z,9.02
2019-04-23T00:27:35.304Z,8.92
2019-04-23T00:30:18.701Z,8.97
2019-04-23T00:32:36.329Z,8.95
2019-04-23T00:40:03.253Z,8.76
2019-04-23T00:42:38.553Z,8.78
2019-04-23T00:45:01.730Z,8.77
2019-04-23T00:52:33.561Z,8.66
2019-04-23T00:55:11.019Z,8.64
2019-04-23T00:57:35.562Z,8.74
2019-04-23T01:00:22.097Z,8.73
2019-04-23T01:02:37.052Z,8.62
2019-04-23T01:05:11.831Z,8.62
2019-04-23T01:10:14.623Z,8.72
2019-04-23T01:12:51.205Z,8.67
2019-04-23T01:15:24.249Z,8.65
2019-04-23T01:17:49.142Z,8.62
2019-04-23T01:20:22.593Z,8.59
2019-04-23T01:22:40.110Z,8.60
2019-04-23T01:25:36.472Z,8.60
2019-04-23T01:28:33.994Z,8.62
2019-04-23T01:31:05.606Z,8.67
2019-04-23T01:33:32.995Z,8.70
2019-04-23T01:36:11.074Z,8.69
2019-04-23T01:38:49.965Z,8.69
2019-04-23T01:40:53.625Z,8.65
2019-04-23T01:43:30.529Z,8.61
2019-04-23T01:46:01.219Z,8.57
2019-04-23T01:48:34.331Z,8.44
2019-04-23T01:51:20.448Z,8.34
2019-04-23T01:53:48.152Z,8.22
2019-04-23T01:56:06.095Z,8.16
2019-04-23T01:58:38.261Z,8.10
2019-04-23T02:03:34.716Z,8.03
2019-04-23T02:08:32.168Z,8.06
2019-04-23T02:11:10.518Z,8.07
2019-04-23T02:13:36.304Z,8.05
2019-04-23T02:15:59.853Z,8.07
2019-04-23T02:18:38.855Z,8.04
2019-04-23T02:21:07.611Z,8.03
2019-04-23T02:23:44.722Z,8.08
2019-04-23T02:28:48.703Z,8.13
2019-04-23T02:34:12.150Z,8.07
2019-04-23T02:36:11.375Z,8.08
2019-04-23T02:43:59.556Z,8.08
2019-04-23T02:46:31.185Z,8.11
2019-04-23T02:48:56.499Z,8.19
2019-04-23T02:51:29.080Z,8.14
2019-04-23T03:06:29.538Z,8.19
2019-04-23T03:08:49.166Z,8.19
2019-04-23T03:19:02.950Z,8.08
2019-04-23T03:21:42.680Z,7.93
2019-04-23T03:24:34.577Z,7.84
2019-04-23T03:37:30.714Z,7.02
2019-04-23T03:39:55.064Z,6.96
2019-04-23T03:44:40.169Z,6.83
2019-04-23T03:47:04.363Z,6.69
2019-04-23T03:52:14.126Z,6.53
2019-04-23T03:54:42.259Z,6.51
2019-04-23T03:57:18.234Z,6.44
2019-04-23T04:04:53.595Z,6.33
2019-04-23T04:07:36.270Z,6.30
2019-04-23T04:12:35.399Z,6.15
2019-04-23T04:15:21.255Z,6.08
2019-04-23T04:17:37.991Z,6.05
2019-04-23T04:20:15.303Z,5.98
2019-04-23T04:23:09.364Z,5.93
2019-04-23T04:25:35.458Z,5.90
2019-04-23T04:27:54.159Z,5.95
2019-04-23T04:30:21.497Z,5.92
2019-04-23T04:32:59.086Z,5.90
2019-04-23T04:43:06.752Z,5.72
2019-04-23T04:47:44.959Z,5.71
2019-04-23T04:50:26.685Z,5.66
2019-04-23T04:55:26.315Z,5.69
2019-04-23T04:58:13.035Z,5.76
2019-04-23T05:00:59.615Z,5.70
2019-04-23T05:10:55.916Z,5.71
2019-04-23T05:15:39.440Z,5.71
2019-04-23T05:20:42.968Z,5.64
2019-04-23T05:23:23.447Z,5.62
2019-04-23T05:25:42.842Z,5.51
2019-04-23T05:28:12.713Z,5.54
2019-04-23T05:30:46.101Z,5.44
2019-04-23T05:40:53.723Z,5.49
2019-04-23T05:43:32.344Z,5.52
2019-04-23T05:45:46.575Z,5.52
2019-04-23T05:48:21.551Z,5.51
2019-04-23T05:50:59.116Z,5.51
2019-04-23T05:53:18.444Z,5.49
2019-04-23T05:55:47.608Z,5.43
2019-04-23T05:58:23.179Z,5.46
2019-04-23T06:00:58.103Z,5.41
2019-04-23T06:03:22.901Z,5.46
2019-04-23T06:05:56.559Z,5.42
2019-04-23T06:08:39.151Z,5.51
2019-04-23T06:10:55.846Z,5.55
2019-04-23T06:13:33.734Z,5.54
2019-04-23T06:15:55.860Z,5.39
2019-04-23T06:18:30.499Z,5.32
2019-04-23T06:23:43.677Z,5.28
2019-04-23T06:26:08.021Z,5.15
2019-04-23T06:28:26.962Z,5.03
2019-04-23T06:31:04.619Z,5.04
2019-04-23T06:33:34.122Z,5.06
2019-04-23T06:36:05.191Z,4.96
2019-04-23T06:38:40.737Z,4.87
2019-04-23T06:41:00.740Z,4.92
2019-04-23T06:43:47.046Z,4.91
2019-04-23T06:46:05.765Z,4.82
2019-04-23T06:48:38.555Z,4.83
2019-04-23T06:51:11.223Z,4.97
2019-04-23T06:53:41.092Z,5.00
2019-04-23T06:56:11.773Z,5.06
2019-04-23T06:58:37.625Z,5.05
2019-04-23T07:01:05.332Z,5.17
2019-04-23T07:03:48.155Z,5.18
2019-04-23T07:13:57.705Z,5.43
2019-04-23T07:18:41.163Z,5.49
2019-04-23T07:26:26.148Z,5.54
2019-04-23T07:28:50.128Z,5.52
2019-04-23T07:31:20.313Z,5.54
2019-04-23T07:33:54.285Z,5.62
2019-04-23T07:36:25.903Z,5.63
2019-04-23T07:41:47.965Z,5.78
2019-04-23T07:44:24.866Z,5.80
2019-04-23T07:47:11.562Z,5.90
2019-04-23T07:49:35.980Z,5.96
2019-04-23T07:52:10.985Z,6.01
2019-04-23T07:54:39.955Z,6.12
2019-04-23T07:57:12.260Z,6.30
2019-04-23T07:59:33.535Z,6.23
2019-04-23T08:02:08.103Z,6.31
2019-04-23T08:04:36.785Z,6.41
2019-04-23T08:07:07.043Z,6.60
2019-04-23T08:09:43.033Z,6.61
2019-04-23T08:12:16.955Z,6.57
2019-04-23T08:14:40.866Z,6.66
2019-04-23T08:17:12.357Z,6.73
2019-04-23T08:19:51.297Z,6.78
2019-04-23T08:22:20.737Z,7.03
2019-04-23T08:25:01.197Z,7.30
2019-04-23T08:27:22.538Z,7.76
2019-04-23T08:29:55.830Z,7.91
2019-04-23T08:32:21.375Z,8.38
2019-04-23T08:35:04.382Z,8.19
2019-04-23T08:37:47.934Z,7.94
2019-04-23T08:40:01.442Z,8.20
2019-04-23T08:42:49.633Z,8.16
2019-04-23T08:45:22.722Z,8.35
2019-04-23T08:53:17.828Z,8.59
2019-04-23T08:55:38.723Z,8.38
2019-04-23T08:58:06.149Z,8.24
2019-04-23T09:00:49.848Z,8.18
2019-04-23T09:05:45.257Z,7.98
2019-04-23T09:08:14.996Z,7.70
2019-04-23T09:13:45.082Z,7.32
2019-04-23T09:18:15.816Z,7.18
2019-04-23T09:20:37.138Z,7.24
2019-04-23T09:23:20.326Z,7.33
2019-04-23T09:25:49.876Z,7.32
2019-04-23T09:28:28.107Z,7.64
2019-04-23T09:36:13.697Z,7.59
2019-04-23T09:39:08.241Z,7.70
2019-04-23T09:41:48.341Z,8.14
2019-04-23T09:45:03.768Z,8.13
2019-04-23T09:47:34.698Z,8.44
2019-04-23T09:50:04.618Z,8.27
2019-04-23T09:52:30.405Z,8.39
2019-04-23T09:55:04.709Z,8.30
2019-04-23T09:57:36.073Z,8.11
2019-04-23T10:00:02.149Z,8.02
2019-04-23T10:02:22.244Z,8.15
2019-04-23T10:04:50.557Z,8.22
2019-04-23T10:07:16.445Z,8.12
2019-04-23T10:09:36.336Z,7.97
2019-04-23T10:12:07.163Z,8.16
2019-04-23T10:14:36.722Z,8.31
2019-04-23T10:17:06.415Z,8.14
2019-04-23T10:19:35.163Z,8.26
2019-04-23T10:22:05.057Z,8.39
2019-04-23T10:24:35.065Z,8.73
2019-04-23T10:27:04.332Z,8.67
2019-04-23T10:29:36.233Z,8.95
2019-04-23T10:32:05.348Z,9.36
2019-04-23T10:34:47.526Z,9.62
2019-04-23T10:37:05.276Z,9.59
2019-04-23T10:39:37.801Z,9.33
2019-04-23T10:42:05.858Z,9.26
2019-04-23T10:44:40.757Z,9.24
2019-04-23T10:47:59.181Z,8.92
2019-04-23T10:50:40.631Z,8.98
2019-04-23T10:53:10.204Z,9.25
2019-04-23T10:55:44.849Z,9.70
2019-04-23T10:58:12.627Z,9.34
2019-04-23T11:00:40.583Z,9.31
2019-04-23T11:03:23.318Z,9.62
2019-04-23T11:08:11.651Z,9.22
2019-04-23T11:10:34.386Z,9.44
2019-04-23T11:13:19.426Z,9.49
2019-04-23T11:18:02.830Z,9.81
2019-04-23T11:20:56.408Z,9.89
2019-04-23T11:23:05.047Z,9.87
2019-04-23T11:25:45.118Z,9.74
2019-04-23T11:30:57.277Z,9.63
2019-04-23T11:33:33.345Z,9.60
2019-04-23T11:36:19.891Z,9.30
2019-04-23T11:41:00.428Z,9.32
2019-04-23T11:43:32.570Z,9.36
2019-04-23T11:46:10.544Z,9.40
2019-04-23T11:51:41.116Z,9.42
2019-04-23T11:53:41.939Z,9.63
2019-04-23T11:56:02.660Z,9.71
2019-04-23T11:58:39.239Z,9.71
2019-04-23T12:01:38.708Z,9.67
2019-04-23T12:04:07.371Z,9.92
2019-04-23T12:06:36.712Z,9.96
2019-04-23T12:09:07.530Z,10.00
2019-04-23T12:11:53.452Z,9.89
2019-04-23T12:14:31.036Z,9.93
2019-04-23T12:17:02.087Z,10.37
2019-04-23T12:22:02.851Z,10.12
2019-04-23T12:24:42.137Z,10.03
2019-04-23T12:29:33.896Z,10.24
2019-04-23T12:32:23.827Z,10.32
2019-04-23T12:34:58.726Z,10.37
2019-04-23T12:37:21.489Z,10.41
2019-04-23T12:39:49.423Z,10.50
2019-04-23T12:42:45.220Z,10.51
2019-04-23T12:44:56.473Z,10.50
2019-04-23T12:47:40.169Z,10.42
2019-04-23T12:50:15.033Z,10.09
2019-04-23T12:52:26.270Z,10.25
2019-04-23T12:59:49.775Z,9.58
2019-04-23T13:02:32.678Z,9.59
2019-04-23T13:04:51.749Z,9.74
2019-04-23T13:07:29.267Z,9.59
2019-04-23T13:12:36.221Z,9.85
2019-04-23T13:14:56.027Z,10.10
2019-04-23T13:22:30.803Z,10.04
2019-04-23T13:25:02.332Z,10.21
2019-04-23T13:27:41.620Z,10.26
2019-04-23T13:32:44.565Z,10.09
2019-04-23T13:37:54.472Z,9.74
2019-04-23T13:40:00.089Z,9.71
2019-04-23T13:42:40.721Z,9.90
2019-04-23T13:45:31.011Z,9.95
2019-04-23T13:47:50.767Z,9.99
2019-04-23T13:50:17.406Z,10.26
2019-04-23T13:58:02.669Z,9.83
2019-04-23T14:00:10.821Z,9.86
2019-04-23T14:02:44.209Z,9.87
2019-04-23T14:05:26.861Z,9.84
2019-04-23T14:08:06.394Z,9.83
2019-04-23T14:10:35.980Z,9.95
2019-04-23T14:18:22.675Z,9.96
2019-04-23T14:20:29.889Z,10.36
2019-04-23T14:23:09.467Z,10.55
2019-04-23T14:25:28.162Z,10.52
2019-04-23T14:28:13.979Z,10.52
2019-04-23T14:30:38.568Z,10.28
2019-04-23T14:33:11.946Z,10.23
2019-04-23T14:35:45.236Z,10.36
2019-04-23T14:38:15.785Z,10.43
2019-04-23T14:40:54.132Z,10.57
2019-04-23T14:46:28.362Z,10.37
2019-04-23T14:48:39.141Z,10.09
2019-04-23T14:50:56.897Z,9.94
2019-04-23T14:53:27.215Z,10.06
2019-04-23T14:56:13.193Z,10.10
2019-04-23T15:01:22.003Z,10.53
2019-04-23T15:03:44.947Z,10.63
2019-04-23T15:08:57.507Z,10.75
2019-04-23T15:11:21.423Z,10.72
2019-04-23T15:18:52.962Z,10.63
2019-04-23T15:21:41.130Z,10.45
2019-04-23T15:23:59.515Z,10.33
2019-04-23T15:27:22.733Z,10.34
2019-04-23T15:28:29.107Z,10.33
2019-04-23T15:34:02.202Z,10.18
2019-04-23T15:36:36.877Z,10.24
2019-04-23T15:41:30.727Z,10.10
2019-04-23T15:44:02.007Z,10.16
2019-04-23T15:46:25.367Z,10.15
2019-04-23T15:49:02.162Z,10.07
2019-04-23T15:51:30.110Z,10.03
2019-04-23T15:54:00.769Z,10.11
2019-04-23T16:03:29.966Z,9.99
2019-04-23T16:05:59.373Z,10.04
2019-04-23T16:09:05.462Z,9.97
2019-04-23T16:14:17.679Z,10.12
2019-04-23T16:19:22.031Z,10.08
2019-04-23T16:21:58.647Z,10.10
2019-04-23T16:24:17.604Z,10.17
2019-04-23T16:26:55.751Z,10.15
2019-04-23T16:29:44.463Z,10.17
2019-04-23T16:31:52.122Z,10.11
2019-04-23T16:34:34.239Z,10.11
2019-04-23T16:37:08.470Z,10.11
2019-04-23T16:39:30.775Z,10.11
2019-04-23T16:42:10.125Z,10.08
2019-04-23T16:44:48.325Z,10.09
2019-04-23T16:47:12.629Z,9.97
2019-04-23T16:49:42.334Z,9.99
2019-04-23T16:52:10.625Z,9.99
2019-04-23T16:54:40.220Z,9.99
2019-04-23T16:57:22.766Z,10.07
2019-04-23T16:59:48.703Z,9.94
2019-04-23T17:04:49.732Z,10.02
2019-04-23T17:07:08.427Z,9.97
2019-04-23T17:12:15.018Z,9.92
2019-04-23T17:14:44.328Z,9.90
2019-04-23T17:17:06.535Z,9.79
2019-04-23T17:19:48.008Z,9.78
2019-04-23T17:22:09.611Z,9.73
2019-04-23T17:24:41.553Z,9.73
2019-04-23T17:27:16.429Z,9.75
2019-04-23T17:32:15.158Z,9.77
2019-04-23T17:37:31.366Z,9.75
2019-04-23T17:40:08.527Z,9.77
2019-04-23T17:42:37.629Z,9.76
2019-04-23T17:45:30.968Z,9.72
2019-04-23T17:47:51.730Z,9.67
2019-04-23T17:50:20.052Z,9.61
2019-04-23T17:52:51.070Z,9.60
2019-04-23T17:55:17.702Z,9.58
2019-04-23T18:00:25.449Z,9.59
2019-04-23T18:03:02.768Z,9.60
2019-04-23T18:05:37.116Z,9.62
2019-04-23T18:12:53.666Z,9.60
2019-04-23T18:15:15.992Z,9.61
2019-04-23T18:20:22.430Z,9.59
2019-04-23T18:23:00.503Z,9.61
2019-04-23T18:25:30.804Z,9.59
2019-04-23T18:27:54.409Z,9.63
2019-04-23T18:30:50.504Z,9.58
2019-04-23T18:33:45.081Z,9.58
2019-04-23T18:35:43.921Z,9.61
2019-04-23T18:40:54.626Z,9.63
2019-04-23T18:43:15.279Z,9.58
2019-04-23T18:45:45.113Z,9.56
2019-04-23T18:58:54.661Z,9.49
2019-04-23T19:01:11.291Z,9.47
2019-04-23T19:04:00.384Z,9.43
2019-04-23T19:09:13.976Z,9.40
2019-04-23T19:19:29.046Z,9.40
2019-04-23T19:22:13.699Z,9.35
2019-04-23T19:24:28.652Z,9.33
2019-04-23T19:27:10.612Z,9.36
2019-04-23T19:29:39.437Z,9.33
2019-04-23T19:31:58.324Z,9.36
2019-04-23T19:34:35.706Z,9.35
2019-04-23T19:37:02.618Z,9.34
2019-04-23T19:39:29.589Z,9.33
2019-04-23T19:47:12.483Z,9.32
2019-04-23T19:52:04.825Z,9.33
2019-04-23T19:57:05.266Z,9.37
2019-04-23T19:59:45.029Z,9.40
2019-04-23T20:02:09.563Z,9.37
2019-04-23T20:12:09.474Z,9.41
2019-04-23T20:14:44.223Z,9.40
2019-04-23T20:22:17.118Z,9.35
2019-04-23T20:27:11.476Z,9.41
2019-04-23T20:30:02.856Z,9.37
2019-04-23T20:33:19.186Z,9.38
2019-04-23T20:35:00.265Z,9.31
2019-04-23T20:37:42.830Z,9.36
2019-04-23T20:42:39.095Z,9.41
2019-04-23T20:44:59.067Z,9.38
2019-04-23T20:47:24.456Z,9.36
2019-04-23T20:49:47.893Z,9.40
2019-04-23T20:52:20.361Z,9.34
2019-04-23T21:05:21.308Z,9.41
2019-04-23T21:13:08.729Z,9.38
2019-04-23T21:15:28.320Z,9.36
2019-04-23T21:18:08.298Z,9.45
2019-04-23T21:20:34.046Z,9.43
2019-04-23T21:23:06.277Z,9.44
2019-04-23T21:25:32.387Z,9.42
2019-04-23T21:28:14.234Z,9.45
2019-04-23T21:33:15.935Z,9.29
2019-04-23T21:41:31.415Z,9.24
2019-04-23T21:46:27.780Z,9.21
2019-04-23T21:49:09.089Z,9.21
2019-04-23T21:51:41.957Z,9.19
2019-04-23T21:56:31.376Z,9.10
2019-04-23T22:06:40.851Z,8.90
2019-04-23T22:11:48.278Z,8.78
2019-04-23T22:16:35.643Z,8.71
2019-04-23T22:19:10.994Z,8.66
2019-04-23T22:24:07.183Z,8.68
2019-04-23T22:26:33.843Z,8.57
2019-04-23T22:31:44.293Z,8.40
2019-04-23T22:34:09.260Z,8.34
2019-04-23T22:36:43.160Z,8.37
2019-04-23T22:39:09.739Z,8.27
2019-04-23T22:41:43.722Z,8.22
2019-04-23T22:44:10.847Z,8.15
2019-04-23T22:46:57.521Z,8.19
2019-04-23T22:49:23.228Z,8.11
2019-04-23T22:51:52.728Z,8.10
2019-04-23T22:54:11.722Z,8.09
2019-04-23T22:56:46.847Z,8.08
2019-04-23T22:59:21.268Z,8.07
2019-04-23T23:01:51.295Z,8.12
2019-04-23T23:04:35.465Z,8.04
2019-04-23T23:06:55.526Z,8.04
2019-04-23T23:14:27.785Z,7.97
2019-04-23T23:22:00.183Z,7.86
2019-04-23T23:24:13.690Z,7.93
2019-04-23T23:26:54.516Z,7.98
2019-04-23T23:29:19.223Z,8.08
2019-04-23T23:34:29.791Z,8.15
2019-04-23T23:36:59.048Z,8.07
2019-04-23T23:39:22.784Z,8.04
2019-04-23T23:41:58.921Z,8.09
2019-04-23T23:46:56.312Z,8.18
2019-04-23T23:51:54.341Z,8.20
2019-04-23T23:59:24.665Z,8.26
